This is the latest recevied weather packets stored in our database for station/object AD8IZ-13. If no packets are shown the sender has not sent any weather packets the latest 10 day(s).
| Time | Temp. | Humidity | Pressure | Rain* | Wind** | Luminosity | Snow |
|---|---|---|---|---|---|---|---|
| 1787516118 | 25° C | 56% | 1014 hPa | 0 mm | - | 639 W/m² | - |
| 1787515520 | 23.89° C | 57% | 1014.1 hPa | 0 mm | - | 543 W/m² | - |
| 1787514919 | 23.89° C | 57% | 1014.2 hPa | 0 mm | - | 234 W/m² | - |
| 1787514321 | 24.44° C | 56% | 1014.1 hPa | 0 mm | - | 175 W/m² | - |
| 1787513718 | 23.89° C | 57% | 1014.2 hPa | 0 mm | - | 661 W/m² | - |
| 1787513118 | 23.89° C | 58% | 1014.4 hPa | 0 mm | - | 306 W/m² | - |
| 1787512518 | 24.44° C | 55% | 1014.4 hPa | 0 mm | - | 200 W/m² | - |
| 1787511919 | 25° C | 54% | 1014.4 hPa | 0 mm | - | 192 W/m² | - |
| 1787511319 | 23.89° C | 56% | 1014.4 hPa | 0 mm | - | 894 W/m² | - |
| 1787510719 | 23.89° C | 57% | 1014.5 hPa | 0 mm | - | 484 W/m² | - |
| 1787510119 | 23.89° C | 55% | 1014.6 hPa | 0 mm | - | 244 W/m² | - |
| 1787509519 | 24.44° C | 53% | 1014.6 hPa | 0 mm | - | 413 W/m² | - |
| 1787508922 | 25° C | 54% | 1014.6 hPa | 0 mm | - | 880 W/m² | - |
| 1787508317 | 24.44° C | 54% | 1014.7 hPa | 0 mm | - | 866 W/m² | - |
| 1787507717 | 24.44° C | 54% | 1014.8 hPa | 0 mm | - | 914 W/m² | - |
| 1787507120 | 24.44° C | 53% | 1014.9 hPa | 0 mm | - | 836 W/m² | - |
| 1787506520 | 23.89° C | 57% | 1014.9 hPa | 0 mm | - | 898 W/m² | - |
| 1787505918 | 23.89° C | 57% | 1014.9 hPa | 0 mm | - | 721 W/m² | - |
| 1787505319 | 23.89° C | 56% | 1015 hPa | 0 mm | - | 431 W/m² | - |
| 1787504718 | 23.33° C | 57% | 1015.1 hPa | 0 mm | - | 853 W/m² | - |
| 1787504118 | 23.33° C | 55% | 1015.2 hPa | 0 mm | - | 849 W/m² | - |
| 1787503518 | 23.33° C | 57% | 1015.3 hPa | 0 mm | - | 838 W/m² | - |
| 1787502918 | 23.33° C | 59% | 1015.4 hPa | 0 mm | - | 825 W/m² | - |
| 1787502319 | 23.33° C | 60% | 1015.6 hPa | 0 mm | - | 815 W/m² | - |
| 1787501721 | 23.33° C | 61% | 1015.6 hPa | 0 mm | - | 812 W/m² | - |
* Rain latest hour (hover to see other rain measurements)
** Current wind speed in m/s (hover to see current wind gust speed)